createdAt,value
2022-07-27T00:00:58.896Z,20.92
2022-07-27T00:03:25.742Z,20.85
2022-07-27T00:05:52.714Z,20.80
2022-07-27T00:08:20.541Z,20.81
2022-07-27T00:10:47.904Z,20.88
2022-07-27T00:13:14.952Z,20.98
2022-07-27T00:15:42.436Z,20.85
2022-07-27T00:18:10.485Z,20.75
2022-07-27T00:20:39.776Z,20.78
2022-07-27T00:23:06.928Z,20.74
2022-07-27T00:25:34.097Z,20.67
2022-07-27T00:28:01.148Z,20.69
2022-07-27T00:30:28.786Z,20.59
2022-07-27T00:32:57.111Z,20.49
2022-07-27T00:35:25.316Z,20.43
2022-07-27T00:37:52.802Z,20.59
2022-07-27T00:40:19.729Z,20.65
2022-07-27T00:42:46.682Z,20.60
2022-07-27T00:45:13.854Z,20.58
2022-07-27T00:47:40.735Z,20.51
2022-07-27T00:50:08.593Z,20.58
2022-07-27T00:52:38.602Z,20.62
2022-07-27T00:55:06.684Z,20.52
2022-07-27T00:57:33.674Z,20.41
2022-07-27T01:00:21.310Z,20.31
2022-07-27T01:02:51.655Z,20.36
2022-07-27T01:05:18.770Z,20.48
2022-07-27T01:07:49.383Z,20.54
2022-07-27T01:10:18.175Z,20.56
2022-07-27T01:12:46.307Z,20.57
2022-07-27T01:15:13.845Z,20.57
2022-07-27T01:17:40.897Z,20.48
2022-07-27T01:20:08.815Z,20.53
2022-07-27T01:22:35.806Z,20.57
2022-07-27T01:25:03.204Z,20.51
2022-07-27T01:27:30.081Z,20.31
2022-07-27T01:29:57.135Z,20.23
2022-07-27T01:32:24.050Z,20.26
2022-07-27T01:34:50.973Z,20.32
2022-07-27T01:37:17.783Z,20.20
2022-07-27T01:39:44.624Z,20.26
2022-07-27T01:42:11.726Z,20.29
2022-07-27T01:44:38.557Z,20.29
2022-07-27T01:47:14.611Z,20.32
2022-07-27T01:49:42.049Z,20.39
2022-07-27T01:52:09.036Z,20.43
2022-07-27T01:54:36.100Z,20.34
2022-07-27T01:57:02.921Z,20.23
2022-07-27T01:59:29.826Z,20.18
2022-07-27T02:01:56.702Z,20.14
2022-07-27T02:04:24.666Z,20.13
2022-07-27T02:06:51.572Z,20.04
2022-07-27T02:09:18.508Z,19.99
2022-07-27T02:12:03.777Z,19.93
2022-07-27T02:14:30.625Z,19.87
2022-07-27T02:16:58.037Z,19.83
2022-07-27T02:19:25.741Z,19.70
2022-07-27T02:21:52.611Z,19.54
2022-07-27T02:24:19.742Z,19.52
2022-07-27T02:26:47.259Z,19.62
2022-07-27T02:29:16.568Z,19.77
2022-07-27T02:31:43.508Z,19.83
2022-07-27T02:34:10.414Z,19.91
2022-07-27T02:36:37.910Z,19.77
2022-07-27T02:39:05.017Z,19.76
2022-07-27T02:41:31.914Z,19.87
2022-07-27T02:43:58.739Z,19.90
2022-07-27T02:46:25.642Z,19.87
2022-07-27T02:48:52.525Z,19.93
2022-07-27T02:51:19.852Z,20.01
2022-07-27T02:53:46.831Z,20.09
2022-07-27T02:56:13.771Z,20.12
2022-07-27T02:58:40.681Z,20.14
2022-07-27T03:01:07.714Z,20.10
2022-07-27T03:03:36.702Z,20.10
2022-07-27T03:06:08.163Z,20.15
2022-07-27T03:08:36.255Z,20.22
2022-07-27T03:11:03.689Z,20.23
2022-07-27T03:13:31.594Z,20.18
2022-07-27T03:15:59.003Z,20.13
2022-07-27T03:18:26.107Z,20.20
2022-07-27T03:20:53.069Z,20.24
2022-07-27T03:23:20.223Z,20.14
2022-07-27T03:25:47.156Z,20.22
2022-07-27T03:28:14.056Z,20.27
2022-07-27T03:30:41.247Z,20.26
2022-07-27T03:33:08.185Z,20.29
2022-07-27T03:35:35.312Z,20.31
2022-07-27T03:38:02.426Z,20.24
2022-07-27T03:40:32.048Z,20.30
2022-07-27T03:42:59.342Z,20.33
2022-07-27T03:45:26.699Z,20.37
2022-07-27T03:47:54.119Z,20.47
2022-07-27T03:50:21.621Z,20.52
2022-07-27T03:52:48.525Z,20.48
2022-07-27T03:55:15.487Z,20.44
2022-07-27T03:57:42.358Z,20.43
2022-07-27T04:00:14.067Z,20.42
2022-07-27T04:02:41.901Z,20.38
2022-07-27T04:05:10.263Z,20.41
2022-07-27T04:07:37.684Z,20.40
2022-07-27T04:10:06.220Z,20.40
2022-07-27T04:12:39.603Z,20.40
2022-07-27T04:15:07.773Z,20.43
2022-07-27T04:17:54.526Z,20.45
2022-07-27T04:20:21.776Z,20.42
2022-07-27T04:22:49.042Z,20.40
2022-07-27T04:25:15.994Z,20.38
2022-07-27T04:27:42.875Z,20.57
2022-07-27T04:30:10.703Z,20.63
2022-07-27T04:32:38.124Z,20.62
2022-07-27T04:35:08.043Z,20.63
2022-07-27T04:37:35.804Z,20.75
2022-07-27T04:40:03.865Z,20.80
2022-07-27T04:42:30.844Z,20.80
2022-07-27T04:44:57.975Z,20.86
2022-07-27T04:47:25.724Z,20.82
2022-07-27T04:49:52.566Z,20.73
2022-07-27T04:52:19.506Z,20.67
2022-07-27T04:54:54.772Z,20.68
2022-07-27T04:57:23.052Z,20.69
2022-07-27T04:59:49.964Z,20.71
2022-07-27T05:02:17.343Z,20.66
2022-07-27T05:04:44.315Z,20.62
2022-07-27T05:07:11.228Z,20.62
2022-07-27T05:09:38.401Z,20.59
2022-07-27T05:12:05.519Z,20.59
2022-07-27T05:14:32.362Z,20.56
2022-07-27T05:16:59.196Z,20.54
2022-07-27T05:19:39.748Z,20.58
2022-07-27T05:22:08.870Z,20.57
2022-07-27T05:24:36.136Z,20.55
2022-07-27T05:27:03.170Z,20.64
2022-07-27T05:29:32.656Z,20.64
2022-07-27T05:31:59.658Z,20.71
2022-07-27T05:34:26.585Z,20.70
2022-07-27T05:36:53.431Z,20.68
2022-07-27T05:39:20.871Z,20.78
2022-07-27T05:41:49.660Z,20.89
2022-07-27T05:44:17.741Z,20.93
2022-07-27T05:46:44.789Z,20.82
2022-07-27T05:49:12.586Z,20.73
2022-07-27T05:51:39.877Z,20.76
2022-07-27T05:54:06.809Z,20.87
2022-07-27T05:56:35.316Z,20.99
2022-07-27T05:59:06.841Z,21.03
2022-07-27T06:01:35.022Z,21.06
2022-07-27T06:04:02.080Z,21.11
2022-07-27T06:06:47.338Z,21.12
2022-07-27T06:09:14.983Z,21.17
2022-07-27T06:11:42.395Z,21.25
2022-07-27T06:14:09.916Z,21.28
2022-07-27T06:16:37.785Z,21.18
2022-07-27T06:19:06.012Z,21.28
2022-07-27T06:21:32.868Z,21.29
2022-07-27T06:23:59.925Z,21.30
2022-07-27T06:26:26.868Z,21.32
2022-07-27T06:28:58.618Z,21.38
2022-07-27T06:31:29.069Z,21.42
2022-07-27T06:34:03.858Z,21.47
2022-07-27T06:36:35.066Z,21.58
2022-07-27T06:39:01.886Z,21.66
2022-07-27T06:41:28.778Z,21.78
2022-07-27T06:43:55.711Z,21.77
2022-07-27T06:46:22.617Z,21.87
2022-07-27T06:48:49.579Z,21.97
2022-07-27T06:51:16.661Z,22.14
2022-07-27T06:53:43.526Z,22.19
2022-07-27T06:56:10.716Z,22.08
2022-07-27T06:58:37.871Z,22.06
2022-07-27T07:01:05.389Z,22.10
2022-07-27T07:03:32.310Z,22.17
2022-07-27T07:05:59.291Z,22.18
2022-07-27T07:08:26.289Z,22.24
2022-07-27T07:10:54.283Z,22.33
2022-07-27T07:13:21.413Z,22.45
2022-07-27T07:15:48.379Z,22.43
2022-07-27T07:18:15.461Z,22.34
2022-07-27T07:20:42.499Z,22.47
2022-07-27T07:23:10.428Z,22.58
2022-07-27T07:25:39.624Z,22.56
2022-07-27T07:28:07.365Z,22.47
2022-07-27T07:30:35.155Z,22.56
2022-07-27T07:33:02.615Z,22.55
2022-07-27T07:35:29.667Z,22.59
2022-07-27T07:37:56.508Z,22.60
2022-07-27T07:43:12.324Z,22.74
2022-07-27T07:45:50.598Z,22.79
2022-07-27T07:48:21.018Z,22.86
2022-07-27T07:50:52.355Z,22.95
2022-07-27T07:53:23.382Z,23.02
2022-07-27T07:55:52.750Z,22.97
2022-07-27T07:58:20.394Z,22.96
2022-07-27T08:00:47.988Z,22.97
2022-07-27T08:03:16.690Z,22.99
2022-07-27T08:05:44.537Z,23.35
2022-07-27T08:08:11.404Z,23.72
2022-07-27T08:10:38.417Z,24.00
2022-07-27T08:13:05.271Z,24.08
2022-07-27T08:15:35.973Z,24.30
2022-07-27T08:18:07.315Z,24.46
2022-07-27T08:20:35.084Z,24.66
2022-07-27T08:23:03.130Z,24.91
2022-07-27T08:25:30.317Z,24.78
2022-07-27T08:27:58.641Z,24.73
2022-07-27T08:30:26.971Z,24.89
2022-07-27T08:33:01.679Z,25.22
2022-07-27T08:35:31.578Z,25.24
2022-07-27T08:37:59.621Z,25.47
2022-07-27T08:40:44.755Z,25.77
2022-07-27T08:43:24.978Z,25.83
2022-07-27T08:45:59.337Z,25.83
2022-07-27T08:48:31.185Z,25.39
2022-07-27T08:50:58.832Z,25.03
2022-07-27T08:53:26.207Z,24.85
2022-07-27T08:56:13.333Z,25.20
2022-07-27T08:58:40.259Z,25.61
2022-07-27T09:01:07.074Z,25.74
2022-07-27T09:03:34.140Z,25.97
2022-07-27T09:06:01.292Z,26.08
2022-07-27T09:08:31.021Z,26.31
2022-07-27T09:10:59.878Z,26.63
2022-07-27T09:13:33.973Z,26.45
2022-07-27T09:16:20.063Z,25.97
2022-07-27T09:18:58.452Z,25.53
2022-07-27T09:21:25.763Z,25.33
2022-07-27T09:23:58.889Z,25.06
2022-07-27T09:26:33.734Z,24.85
2022-07-27T09:29:12.396Z,24.93
2022-07-27T09:31:51.727Z,24.96
2022-07-27T09:34:34.069Z,24.90
2022-07-27T09:37:05.949Z,24.97
2022-07-27T09:39:33.420Z,25.14
2022-07-27T09:42:02.700Z,25.19
2022-07-27T09:44:43.670Z,25.17
2022-07-27T09:47:29.792Z,25.54
2022-07-27T09:50:21.535Z,25.76
2022-07-27T09:52:48.353Z,25.85
2022-07-27T09:55:21.094Z,25.61
2022-07-27T09:57:58.901Z,25.40
2022-07-27T10:00:27.243Z,25.83
2022-07-27T10:02:55.383Z,26.13
2022-07-27T10:05:23.399Z,26.47
2022-07-27T10:07:53.253Z,26.75
2022-07-27T10:10:22.250Z,27.07
2022-07-27T10:12:54.499Z,27.46
2022-07-27T10:15:24.397Z,27.60
2022-07-27T10:18:12.711Z,27.73
2022-07-27T10:20:47.512Z,27.95
2022-07-27T10:23:29.404Z,28.29
2022-07-27T10:26:24.705Z,28.38
2022-07-27T10:29:00.817Z,28.03
2022-07-27T10:31:40.298Z,28.35
2022-07-27T10:34:15.209Z,28.70
2022-07-27T10:36:54.038Z,29.00
2022-07-27T10:39:34.405Z,29.15
2022-07-27T10:42:27.392Z,29.43
2022-07-27T10:45:15.544Z,29.56
2022-07-27T10:47:48.442Z,29.46
2022-07-27T10:50:18.388Z,28.84
2022-07-27T10:52:46.291Z,28.20
2022-07-27T10:55:31.379Z,27.68
2022-07-27T10:58:02.543Z,27.26
2022-07-27T11:00:55.598Z,27.02
2022-07-27T11:03:26.915Z,27.13
2022-07-27T11:06:31.524Z,28.00
2022-07-27T11:09:27.350Z,28.26
2022-07-27T11:11:42.465Z,28.49
2022-07-27T11:14:11.420Z,29.03
2022-07-27T11:16:53.953Z,29.41
2022-07-27T11:19:23.881Z,29.94
2022-07-27T11:21:52.600Z,29.83
2022-07-27T11:24:19.693Z,29.66
2022-07-27T11:26:50.976Z,29.25
2022-07-27T11:29:21.385Z,29.07
2022-07-27T11:31:55.843Z,29.08
2022-07-27T11:34:37.032Z,28.95
2022-07-27T11:37:14.072Z,28.56
2022-07-27T11:39:59.951Z,28.12
2022-07-27T11:42:39.211Z,27.56
2022-07-27T11:45:07.438Z,27.43
2022-07-27T11:47:34.570Z,27.32
2022-07-27T11:50:11.546Z,28.19
2022-07-27T11:52:38.876Z,29.19
2022-07-27T11:55:07.801Z,30.24
2022-07-27T11:57:38.527Z,29.64
2022-07-27T12:00:06.807Z,29.03
2022-07-27T12:02:33.692Z,28.67
2022-07-27T12:05:02.889Z,28.36
2022-07-27T12:07:33.640Z,28.20
2022-07-27T12:10:05.008Z,28.19
2022-07-27T12:12:34.727Z,28.45
2022-07-27T12:15:11.774Z,28.17
2022-07-27T12:17:57.256Z,27.77
2022-07-27T12:20:34.775Z,27.47
2022-07-27T12:23:08.085Z,27.37
2022-07-27T12:25:36.256Z,27.39
2022-07-27T12:28:15.450Z,27.47
2022-07-27T12:30:52.004Z,27.68
2022-07-27T12:33:28.233Z,29.27
2022-07-27T12:35:57.678Z,30.39
2022-07-27T12:38:25.609Z,31.22
2022-07-27T12:41:00.978Z,31.60
2022-07-27T12:43:28.438Z,31.68
2022-07-27T12:45:56.128Z,31.16
2022-07-27T12:48:26.774Z,30.30
2022-07-27T12:51:06.961Z,29.36
2022-07-27T12:53:37.876Z,28.74
2022-07-27T12:56:10.297Z,28.19
2022-07-27T12:58:37.711Z,27.88
2022-07-27T13:01:06.788Z,27.70
2022-07-27T13:03:36.958Z,27.78
2022-07-27T13:06:10.667Z,27.76
2022-07-27T13:08:40.438Z,27.82
2022-07-27T13:11:07.327Z,28.44
2022-07-27T13:13:34.603Z,29.45
2022-07-27T13:16:26.872Z,31.03
2022-07-27T13:18:53.843Z,30.35
2022-07-27T13:21:20.846Z,30.74
2022-07-27T13:23:47.894Z,31.40
2022-07-27T13:26:14.734Z,31.36
2022-07-27T13:28:41.653Z,31.19
2022-07-27T13:31:08.736Z,31.10
2022-07-27T13:33:35.629Z,32.07
2022-07-27T13:36:05.030Z,32.56
2022-07-27T13:38:32.145Z,33.07
2022-07-27T13:41:24.688Z,32.15
2022-07-27T13:43:51.599Z,31.40
2022-07-27T13:46:18.547Z,30.34
2022-07-27T13:48:45.859Z,29.85
2022-07-27T13:51:25.125Z,29.39
2022-07-27T13:53:52.444Z,29.08
2022-07-27T13:56:23.883Z,28.87
2022-07-27T13:58:50.821Z,28.56
2022-07-27T14:01:18.687Z,28.51
2022-07-27T14:03:45.856Z,28.37
2022-07-27T14:06:13.015Z,28.38
2022-07-27T14:08:40.587Z,28.43
2022-07-27T14:11:07.841Z,28.32
2022-07-27T14:13:36.044Z,28.27
2022-07-27T14:16:03.393Z,28.20
2022-07-27T14:18:32.313Z,28.07
2022-07-27T14:21:04.299Z,28.00
2022-07-27T14:23:33.218Z,27.99
2022-07-27T14:26:01.950Z,28.00
2022-07-27T14:28:30.447Z,27.81
2022-07-27T14:30:58.830Z,27.68
2022-07-27T14:33:36.427Z,27.67
2022-07-27T14:36:06.696Z,28.32
2022-07-27T14:38:34.134Z,28.60
2022-07-27T14:41:01.303Z,29.08
2022-07-27T14:43:29.754Z,28.87
2022-07-27T14:45:57.462Z,28.89
2022-07-27T14:48:37.102Z,28.84
2022-07-27T14:51:11.327Z,28.85
2022-07-27T14:53:38.201Z,29.72
2022-07-27T14:56:05.360Z,30.24
2022-07-27T14:58:32.271Z,29.92
2022-07-27T15:00:59.450Z,29.48
2022-07-27T15:03:29.413Z,29.77
2022-07-27T15:05:56.320Z,30.17
2022-07-27T15:08:24.557Z,30.33
2022-07-27T15:10:51.673Z,30.26
2022-07-27T15:13:18.851Z,29.68
2022-07-27T15:15:48.748Z,29.28
2022-07-27T15:18:18.829Z,29.21
2022-07-27T15:20:46.389Z,29.67
2022-07-27T15:23:14.792Z,30.06
2022-07-27T15:25:42.537Z,30.48
2022-07-27T15:28:09.739Z,30.53
2022-07-27T15:30:38.849Z,30.39
2022-07-27T15:33:06.692Z,30.36
2022-07-27T15:35:33.578Z,30.36
2022-07-27T15:38:00.670Z,30.47
2022-07-27T15:40:42.706Z,29.90
2022-07-27T15:43:17.222Z,29.74
2022-07-27T15:45:48.283Z,30.05
2022-07-27T15:48:17.830Z,30.05
2022-07-27T15:50:49.908Z,29.35
2022-07-27T15:53:20.398Z,29.11
2022-07-27T15:55:49.194Z,28.92
2022-07-27T15:58:19.291Z,28.74
2022-07-27T16:00:50.572Z,28.60
2022-07-27T16:03:18.642Z,28.69
2022-07-27T16:05:50.000Z,28.75
2022-07-27T16:08:19.117Z,28.57
2022-07-27T16:10:48.409Z,28.58
2022-07-27T16:13:15.902Z,28.29
2022-07-27T16:16:02.361Z,28.15
2022-07-27T16:18:32.932Z,28.07
2022-07-27T16:21:02.628Z,27.91
2022-07-27T16:23:29.498Z,27.76
2022-07-27T16:26:04.928Z,27.65
2022-07-27T16:28:39.665Z,27.61
2022-07-27T16:31:10.651Z,27.41
2022-07-27T16:33:38.229Z,27.24
2022-07-27T16:36:06.113Z,27.24
2022-07-27T16:38:35.636Z,27.18
2022-07-27T16:41:06.153Z,27.18
2022-07-27T16:43:39.234Z,27.06
2022-07-27T16:46:09.937Z,26.99
2022-07-27T16:48:41.776Z,27.04
2022-07-27T16:51:12.960Z,27.03
2022-07-27T16:53:42.909Z,27.09
2022-07-27T16:56:10.784Z,27.08
2022-07-27T16:58:38.097Z,26.99
2022-07-27T17:01:06.181Z,26.83
2022-07-27T17:03:33.131Z,26.68
2022-07-27T17:06:05.665Z,26.67
2022-07-27T17:08:36.838Z,26.65
2022-07-27T17:11:06.429Z,26.64
2022-07-27T17:13:35.959Z,26.56
2022-07-27T17:16:05.718Z,26.44
2022-07-27T17:18:39.877Z,26.39
2022-07-27T17:21:12.390Z,26.32
2022-07-27T17:23:43.854Z,26.31
2022-07-27T17:26:13.861Z,26.27
2022-07-27T17:28:42.144Z,26.19
2022-07-27T17:31:12.245Z,26.11
2022-07-27T17:33:41.197Z,26.03
2022-07-27T17:36:14.605Z,26.04
2022-07-27T17:38:47.266Z,25.98
2022-07-27T17:41:19.252Z,25.98
2022-07-27T17:43:50.830Z,26.00
2022-07-27T17:46:17.989Z,25.96
2022-07-27T17:48:45.038Z,25.88
2022-07-27T17:51:12.046Z,25.86
2022-07-27T17:53:39.299Z,25.79
2022-07-27T17:56:08.090Z,25.80
2022-07-27T17:58:35.081Z,25.83
2022-07-27T18:01:02.040Z,25.87
2022-07-27T18:03:29.014Z,25.87
2022-07-27T18:05:55.989Z,25.84
2022-07-27T18:08:22.889Z,25.84
2022-07-27T18:10:51.430Z,25.83
2022-07-27T18:13:21.401Z,25.79
2022-07-27T18:15:48.433Z,25.76
2022-07-27T18:18:18.450Z,25.61
2022-07-27T18:20:48.146Z,25.53
2022-07-27T18:23:16.473Z,25.46
2022-07-27T18:25:47.049Z,25.47
2022-07-27T18:28:16.190Z,25.36
2022-07-27T18:30:45.846Z,25.36
2022-07-27T18:33:14.649Z,25.33
2022-07-27T18:35:46.148Z,25.31
2022-07-27T18:38:14.814Z,25.25
2022-07-27T18:40:46.495Z,25.26
2022-07-27T18:43:15.052Z,25.21
2022-07-27T18:45:43.105Z,25.19
2022-07-27T18:48:13.117Z,25.18
2022-07-27T18:50:41.074Z,25.18
2022-07-27T18:53:09.512Z,25.09
2022-07-27T18:55:39.551Z,25.08
2022-07-27T18:58:06.936Z,25.08
2022-07-27T19:00:33.942Z,25.07
2022-07-27T19:03:01.574Z,25.07
2022-07-27T19:05:40.375Z,25.02
2022-07-27T19:08:12.869Z,24.94
2022-07-27T19:10:43.324Z,24.94
2022-07-27T19:13:12.190Z,24.90
2022-07-27T19:15:40.111Z,24.87
2022-07-27T19:18:07.997Z,24.79
2022-07-27T19:20:36.650Z,24.70
2022-07-27T19:23:07.470Z,24.69
2022-07-27T19:25:35.038Z,24.72
2022-07-27T19:28:05.634Z,24.71
2022-07-27T19:30:32.631Z,24.72
2022-07-27T19:33:00.206Z,24.64
2022-07-27T19:35:27.318Z,24.57
2022-07-27T19:37:54.205Z,24.56
2022-07-27T19:43:08.574Z,24.41
2022-07-27T19:45:36.682Z,24.30
2022-07-27T19:48:07.844Z,24.30
2022-07-27T19:50:35.041Z,24.28
2022-07-27T19:53:02.739Z,24.05
2022-07-27T19:55:30.005Z,23.99
2022-07-27T19:57:56.878Z,23.93
2022-07-27T20:00:24.050Z,23.90
2022-07-27T20:02:50.996Z,23.90
2022-07-27T20:05:18.639Z,23.94
2022-07-27T20:07:45.862Z,23.94
2022-07-27T20:10:12.743Z,23.92
2022-07-27T20:12:39.605Z,23.86
2022-07-27T20:15:07.587Z,23.77
2022-07-27T20:17:37.704Z,23.73
2022-07-27T20:20:09.103Z,23.60
2022-07-27T20:22:38.916Z,23.49
2022-07-27T20:25:08.453Z,23.42
2022-07-27T20:27:35.729Z,23.42
2022-07-27T20:30:05.000Z,23.35
2022-07-27T20:32:31.888Z,23.18
2022-07-27T20:34:58.846Z,23.10
2022-07-27T20:37:25.833Z,23.09
2022-07-27T20:39:53.856Z,23.10
2022-07-27T20:42:21.077Z,23.08
2022-07-27T20:44:48.217Z,23.05
2022-07-27T20:47:15.162Z,22.99
2022-07-27T20:49:42.102Z,23.02
2022-07-27T20:52:09.235Z,23.04
2022-07-27T20:54:36.660Z,23.11
2022-07-27T20:57:06.505Z,23.19
2022-07-27T20:59:34.507Z,23.17
2022-07-27T21:02:01.776Z,23.15
2022-07-27T21:04:28.888Z,23.13
2022-07-27T21:06:55.874Z,23.03
2022-07-27T21:09:22.714Z,22.91
2022-07-27T21:11:49.865Z,22.82
2022-07-27T21:14:16.848Z,22.77
2022-07-27T21:16:44.034Z,22.49
2022-07-27T21:19:12.015Z,22.35
2022-07-27T21:21:39.246Z,22.25
2022-07-27T21:24:16.993Z,22.25
2022-07-27T21:26:48.623Z,22.10
2022-07-27T21:29:16.969Z,22.12
2022-07-27T21:31:49.087Z,22.14
2022-07-27T21:34:20.331Z,22.15
2022-07-27T21:36:48.204Z,21.98
2022-07-27T21:39:17.931Z,21.86
2022-07-27T21:41:47.948Z,21.89
2022-07-27T21:44:15.593Z,21.86
2022-07-27T21:46:43.035Z,21.77
2022-07-27T21:49:10.551Z,21.77
2022-07-27T21:51:37.658Z,21.71
2022-07-27T21:54:06.541Z,21.68
2022-07-27T21:56:41.192Z,21.67
2022-07-27T21:59:08.987Z,21.69
2022-07-27T22:01:35.907Z,21.37
2022-07-27T22:04:02.979Z,21.39
2022-07-27T22:06:31.856Z,21.45
2022-07-27T22:09:02.606Z,21.51
2022-07-27T22:11:29.453Z,21.44
2022-07-27T22:13:56.431Z,21.12
2022-07-27T22:16:23.304Z,21.19
2022-07-27T22:18:50.268Z,21.14
2022-07-27T22:21:17.072Z,21.24
2022-07-27T22:23:44.843Z,21.26
2022-07-27T22:26:11.700Z,21.17
2022-07-27T22:28:39.168Z,21.04
2022-07-27T22:31:22.243Z,20.92
2022-07-27T22:33:50.686Z,20.94
2022-07-27T22:36:17.648Z,20.94
2022-07-27T22:38:46.275Z,21.11
2022-07-27T22:41:13.256Z,21.01
2022-07-27T22:43:40.098Z,21.06
2022-07-27T22:46:07.124Z,21.11
2022-07-27T22:48:34.146Z,21.07
2022-07-27T22:51:01.058Z,20.83
2022-07-27T22:53:28.052Z,20.67
2022-07-27T22:55:55.125Z,20.59
2022-07-27T22:58:22.081Z,20.37
2022-07-27T23:00:49.394Z,20.21
2022-07-27T23:03:16.637Z,20.12
2022-07-27T23:05:43.620Z,20.33
2022-07-27T23:08:10.648Z,20.43
2022-07-27T23:10:47.597Z,20.63
2022-07-27T23:13:17.017Z,20.63
2022-07-27T23:15:45.552Z,20.54
2022-07-27T23:18:13.197Z,19.94
2022-07-27T23:20:41.574Z,19.77
2022-07-27T23:23:12.424Z,19.95
2022-07-27T23:25:48.112Z,20.11
2022-07-27T23:28:16.300Z,19.74
2022-07-27T23:30:43.478Z,19.82
2022-07-27T23:33:10.413Z,19.81
2022-07-27T23:35:37.373Z,19.82
2022-07-27T23:38:04.605Z,19.92
2022-07-27T23:40:31.492Z,20.02
2022-07-27T23:42:58.464Z,20.02
2022-07-27T23:45:26.423Z,19.65
2022-07-27T23:47:53.534Z,19.75
2022-07-27T23:50:20.782Z,19.49
2022-07-27T23:52:47.868Z,19.49
2022-07-27T23:55:14.917Z,19.57
2022-07-27T23:57:41.843Z,19.52
